Time;durP1;ratioP1;P1;durP2;ratioP2;P2;SDS_P1;SDS_P2;PMS_P1;PMS_P2;Temp;Humidity;BMP_temperature;BMP_pressure;BME280_temperature;BME280_humidity;BME280_pressure;Samples;Min_cycle;Max_cycle;Signal;HPM_P1;HPM_P2
2021/06/09 00:01:07;;;;;;;23.47;20.00;;;16.20;99.90;;;;;;5073032;28;20634;-83
2021/06/09 00:03:35;;;;;;;22.77;20.47;;;16.20;99.90;;;;;;5073088;28;20660;-83
2021/06/09 00:06:01;;;;;;;25.73;23.07;;;16.20;99.90;;;;;;5072141;28;21035;-83
2021/06/09 00:08:28;;;;;;;25.47;21.50;;;16.10;99.90;;;;;;5067176;28;21056;-83
2021/06/09 00:10:56;;;;;;;23.77;21.27;;;16.10;99.90;;;;;;5072985;28;20634;-84
2021/06/09 00:13:24;;;;;;;24.80;21.73;;;16.00;99.90;;;;;;5072742;28;20621;-83
2021/06/09 00:15:51;;;;;;;24.00;21.50;;;16.10;99.90;;;;;;5072669;28;20658;-84
2021/06/09 00:18:18;;;;;;;25.17;22.63;;;16.10;99.90;;;;;;5072772;28;21116;-83
2021/06/09 00:20:45;;;;;;;27.40;23.10;;;16.20;99.90;;;;;;5072300;28;21242;-83
2021/06/09 00:23:17;;;;;;;24.37;21.90;;;16.20;99.90;;;;;;5072549;28;20654;-83
2021/06/09 00:25:48;;;;;;;25.30;22.73;;;16.20;99.90;;;;;;5072244;28;21207;-83
2021/06/09 00:28:15;;;;;;;23.00;20.77;;;16.20;99.90;;;;;;5072695;28;20731;-83
2021/06/09 00:30:42;;;;;;;24.30;21.90;;;16.20;99.90;;;;;;5072538;28;20640;-83
2021/06/09 00:33:08;;;;;;;22.37;20.00;;;16.10;99.90;;;;;;5072689;28;20652;-83
2021/06/09 00:35:36;;;;;;;21.33;19.30;;;16.00;99.90;;;;;;5071699;28;20724;-83
2021/06/09 00:38:03;;;;;;;23.80;21.40;;;15.90;99.90;;;;;;5072771;28;21224;-84
2021/06/09 00:40:32;;;;;;;23.73;21.20;;;15.90;99.90;;;;;;5072156;28;20608;-83
2021/06/09 00:43:08;;;;;;;23.80;21.30;;;15.90;99.90;;;;;;5071962;28;20622;-84
2021/06/09 00:45:35;;;;;;;20.33;18.17;;;15.80;99.90;;;;;;5071442;28;20993;-84
2021/06/09 00:48:01;;;;;;;18.50;16.53;;;15.70;99.90;;;;;;5071445;28;20629;-83
2021/06/09 00:50:28;;;;;;;19.93;17.90;;;15.70;99.90;;;;;;5072283;28;20625;-84
2021/06/09 00:53:26;;;;;;;19.57;17.67;;;15.70;99.90;;;;;;5072141;28;21204;-84
2021/06/09 00:55:44;;;;;;;19.13;17.33;;;15.60;99.90;;;;;;5071386;28;21307;-83
2021/06/09 00:58:11;;;;;;;20.70;18.60;;;15.60;99.90;;;;;;5071848;28;21066;-84
2021/06/09 01:00:37;;;;;;;17.40;15.70;;;15.60;99.90;;;;;;5061687;28;20694;-84
2021/06/09 01:03:05;;;;;;;19.30;17.43;;;15.50;99.90;;;;;;5051608;28;20716;-83
2021/06/09 01:05:34;;;;;;;19.30;17.30;;;15.50;99.90;;;;;;5051407;28;21063;-83
2021/06/09 01:08:06;;;;;;;18.30;16.60;;;15.60;99.90;;;;;;5051620;28;21545;-84
2021/06/09 01:10:35;;;;;;;18.33;16.53;;;15.60;99.90;;;;;;5051367;28;20618;-84
2021/06/09 01:13:04;;;;;;;17.30;15.70;;;15.60;99.90;;;;;;5051812;28;20628;-83
2021/06/09 01:15:32;;;;;;;18.00;16.20;;;15.60;99.90;;;;;;5069355;28;20988;-84
2021/06/09 01:18:00;;;;;;;17.33;15.67;;;15.60;99.90;;;;;;5068038;28;20629;-84
2021/06/09 01:20:32;;;;;;;17.13;15.43;;;15.30;99.90;;;;;;5069969;28;20623;-84
2021/06/09 01:23:03;;;;;;;17.90;16.20;;;15.30;99.90;;;;;;5071067;28;20732;-84
2021/06/09 01:25:32;;;;;;;19.20;17.30;;;15.30;99.90;;;;;;5062092;28;20683;-84
2021/06/09 01:28:01;;;;;;;19.77;17.77;;;15.40;99.90;;;;;;5065267;28;20699;-83
2021/06/09 01:30:29;;;;;;;19.57;17.73;;;15.30;99.90;;;;;;5071104;28;20739;-84
2021/06/09 01:32:56;;;;;;;19.13;17.33;;;15.40;99.90;;;;;;5069839;28;20719;-83
2021/06/09 01:35:24;;;;;;;20.23;18.20;;;15.40;99.90;;;;;;5070632;28;20617;-84
2021/06/09 01:37:51;;;;;;;18.47;16.60;;;15.40;99.90;;;;;;5070637;28;20645;-84
2021/06/09 01:40:22;;;;;;;18.87;16.87;;;15.40;99.90;;;;;;5071138;28;20617;-84
2021/06/09 01:42:51;;;;;;;19.53;17.53;;;15.50;99.90;;;;;;5071089;28;20648;-84
2021/06/09 01:45:20;;;;;;;21.37;19.07;;;15.50;99.90;;;;;;5070451;28;20622;-84
2021/06/09 01:47:49;;;;;;;20.10;17.80;;;15.50;99.90;;;;;;5070048;28;21021;-85
2021/06/09 01:50:17;;;;;;;23.70;18.63;;;15.50;99.90;;;;;;5070691;28;20620;-84
2021/06/09 01:52:46;;;;;;;22.10;19.73;;;15.50;99.90;;;;;;5070468;28;20664;-84
2021/06/09 01:55:15;;;;;;;21.97;19.70;;;15.60;99.90;;;;;;5063978;28;20690;-84
2021/06/09 01:57:44;;;;;;;22.23;20.03;;;15.50;99.90;;;;;;5070169;28;20998;-84
2021/06/09 02:00:15;;;;;;;22.93;20.60;;;15.50;99.90;;;;;;5070757;28;21247;-83
2021/06/09 02:02:43;;;;;;;22.17;19.97;;;15.40;99.90;;;;;;5070124;28;20657;-84
2021/06/09 02:05:12;;;;;;;22.70;20.40;;;15.50;99.90;;;;;;5070293;28;20622;-84
2021/06/09 02:07:41;;;;;;;21.40;19.20;;;15.50;99.90;;;;;;5070575;28;20621;-83
2021/06/09 02:10:11;;;;;;;22.53;20.10;;;15.50;99.90;;;;;;5070738;28;20627;-83
2021/06/09 02:12:41;;;;;;;23.37;20.87;;;15.50;99.90;;;;;;5070653;28;20621;-84
2021/06/09 02:15:12;;;;;;;23.77;21.23;;;15.40;99.90;;;;;;5069719;28;20618;-84
2021/06/09 02:17:41;;;;;;;22.83;20.43;;;15.50;99.90;;;;;;5070362;28;21052;-84
2021/06/09 02:20:09;;;;;;;24.70;20.40;;;15.50;99.90;;;;;;5070441;28;20601;-84
2021/06/09 02:22:39;;;;;;;23.57;21.07;;;15.50;99.90;;;;;;5070156;28;20637;-84
2021/06/09 02:25:08;;;;;;;21.60;19.60;;;15.50;99.90;;;;;;5069758;28;20647;-84
2021/06/09 02:27:38;;;;;;;23.50;21.00;;;15.50;99.90;;;;;;5069819;28;20607;-84
2021/06/09 02:30:08;;;;;;;22.10;19.07;;;15.50;99.90;;;;;;5070178;28;20624;-84
2021/06/09 02:32:37;;;;;;;24.67;22.10;;;15.50;99.90;;;;;;5069956;28;20612;-84
2021/06/09 02:35:13;;;;;;;23.87;21.37;;;15.50;99.90;;;;;;5069298;28;21111;-84
2021/06/09 02:37:40;;;;;;;22.50;20.20;;;15.60;99.90;;;;;;5069691;28;20702;-84
2021/06/09 02:40:09;;;;;;;22.50;19.67;;;15.60;99.90;;;;;;5069765;28;20625;-84
2021/06/09 02:42:36;;;;;;;22.67;20.37;;;15.60;99.90;;;;;;5070512;28;20649;-84
2021/06/09 02:45:07;;;;;;;24.67;20.30;;;15.70;99.90;;;;;;5069920;28;20617;-83
2021/06/09 02:47:35;;;;;;;20.30;18.20;;;15.60;99.90;;;;;;5068805;28;20998;-84
2021/06/09 02:50:05;;;;;;;22.80;19.50;;;15.60;99.90;;;;;;5069809;28;20614;-84
2021/06/09 02:52:34;;;;;;;21.47;19.40;;;15.70;99.90;;;;;;5069770;28;20625;-85
2021/06/09 02:55:05;;;;;;;21.97;19.87;;;15.60;99.90;;;;;;5069140;28;20680;-84
2021/06/09 02:57:38;;;;;;;22.83;20.53;;;15.60;99.90;;;;;;5070121;28;20644;-84
2021/06/09 03:00:08;;;;;;;21.30;18.30;;;15.60;99.90;;;;;;5069998;28;20603;-84
2021/06/09 03:02:42;;;;;;;23.60;20.37;;;15.60;99.90;;;;;;5070280;28;20602;-84
2021/06/09 03:05:18;;;;;;;21.33;19.03;;;15.60;99.90;;;;;;5069165;28;21275;-84
2021/06/09 03:07:56;;;;;;;22.07;19.70;;;15.60;99.90;;;;;;5073019;28;20629;-84
2021/06/09 03:10:33;;;;;;;22.37;19.60;;;15.60;99.90;;;;;;5073737;28;20637;-84
2021/06/09 03:13:06;;;;;;;22.43;20.17;;;15.60;99.90;;;;;;5074000;28;20606;-84
2021/06/09 03:15:39;;;;;;;21.10;19.00;;;15.60;99.90;;;;;;5072927;28;20614;-84
2021/06/09 03:18:14;;;;;;;22.60;20.20;;;15.60;99.90;;;;;;5073680;28;20660;-84
2021/06/09 03:20:52;;;;;;;19.50;17.43;;;15.60;99.90;;;;;;5073447;28;20621;-84
2021/06/09 03:23:33;;;;;;;20.93;18.73;;;15.70;99.90;;;;;;5073479;28;21304;-84
2021/06/09 03:26:08;;;;;;;19.97;18.03;;;15.60;99.90;;;;;;5072673;28;20609;-84
2021/06/09 03:28:42;;;;;;;22.13;19.83;;;15.60;99.90;;;;;;5073933;28;21008;-84
2021/06/09 03:31:14;;;;;;;21.47;18.73;;;15.70;99.90;;;;;;5073702;28;20599;-84
2021/06/09 03:33:44;;;;;;;21.73;19.30;;;15.60;99.90;;;;;;5073900;28;20612;-84
2021/06/09 03:36:19;;;;;;;22.33;19.67;;;15.50;99.90;;;;;;5072881;28;20748;-84
2021/06/09 03:38:49;;;;;;;21.50;19.20;;;15.50;99.90;;;;;;5073472;28;20645;-84
2021/06/09 03:41:16;;;;;;;24.53;21.57;;;15.60;99.90;;;;;;5073552;28;20661;-84
2021/06/09 03:43:48;;;;;;;22.97;20.73;;;15.60;99.90;;;;;;5073375;28;20653;-83
2021/06/09 03:46:16;;;;;;;20.97;18.83;;;15.60;99.90;;;;;;5072066;28;20601;-83
2021/06/09 03:48:44;;;;;;;22.50;19.83;;;15.60;99.90;;;;;;5072900;28;20684;-83
2021/06/09 03:51:13;;;;;;;21.20;19.00;;;15.60;99.90;;;;;;5073008;28;20597;-83
2021/06/09 03:53:41;;;;;;;21.83;19.53;;;15.60;99.90;;;;;;5073438;28;20647;-83
2021/06/09 03:56:10;;;;;;;23.73;21.20;;;15.60;99.90;;;;;;5072432;28;20625;-84
2021/06/09 03:58:39;;;;;;;24.63;22.20;;;15.70;99.90;;;;;;5073452;28;20628;-84
2021/06/09 04:01:07;;;;;;;24.67;22.03;;;15.70;99.90;;;;;;5073026;28;20621;-84
2021/06/09 04:03:35;;;;;;;25.23;22.03;;;15.70;99.90;;;;;;5072933;28;20706;-83
2021/06/09 04:06:03;;;;;;;22.43;20.00;;;15.70;99.90;;;;;;5072847;28;20617;-83
2021/06/09 04:08:33;;;;;;;24.07;21.47;;;15.70;99.90;;;;;;5073004;28;20616;-83
2021/06/09 04:11:00;;;;;;;23.47;21.07;;;15.70;99.90;;;;;;5072720;28;20616;-83
2021/06/09 04:13:28;;;;;;;22.93;20.53;;;15.70;99.90;;;;;;5072938;28;20603;-83
2021/06/09 04:15:55;;;;;;;22.03;19.73;;;15.70;99.90;;;;;;5071653;28;21109;-83
2021/06/09 04:18:22;;;;;;;22.33;20.00;;;15.70;99.90;;;;;;5072040;28;20602;-83
2021/06/09 04:20:49;;;;;;;23.60;21.10;;;15.70;99.90;;;;;;5072447;28;20631;-83
2021/06/09 04:23:16;;;;;;;21.27;19.10;;;15.80;99.90;;;;;;5072490;28;20678;-83
2021/06/09 04:25:44;;;;;;;24.07;21.60;;;15.80;99.90;;;;;;5071692;28;20964;-83
2021/06/09 04:28:12;;;;;;;22.40;20.17;;;15.80;99.90;;;;;;5072594;28;20655;-83
2021/06/09 04:30:39;;;;;;;21.10;18.90;;;15.80;99.90;;;;;;5072023;28;20625;-83
2021/06/09 04:33:07;;;;;;;24.73;22.33;;;15.90;99.90;;;;;;5072321;28;20623;-83
2021/06/09 04:35:38;;;;;;;23.63;20.47;;;16.00;99.90;;;;;;5071805;28;20629;-83
2021/06/09 04:38:06;;;;;;;24.63;22.03;;;16.00;99.90;;;;;;5072340;28;20655;-83
2021/06/09 04:40:32;;;;;;;23.50;20.97;;;16.00;99.90;;;;;;5072395;28;20624;-83
2021/06/09 04:43:00;;;;;;;24.07;21.57;;;16.00;99.90;;;;;;5072013;28;20634;-84
2021/06/09 04:45:29;;;;;;;23.47;20.97;;;16.00;99.90;;;;;;5070188;28;20623;-83
2021/06/09 04:47:56;;;;;;;25.50;22.90;;;16.10;99.90;;;;;;5067963;28;20637;-84
2021/06/09 04:50:25;;;;;;;23.80;21.37;;;16.10;99.90;;;;;;5072489;28;21207;-84
2021/06/09 04:53:09;;;;;;;23.70;21.40;;;16.20;99.90;;;;;;5073419;28;21313;-85
2021/06/09 04:55:38;;;;;;;25.17;22.57;;;16.20;99.90;;;;;;5071329;28;20725;-85
2021/06/09 04:58:06;;;;;;;26.43;23.33;;;16.20;99.90;;;;;;5073652;28;20656;-85
2021/06/09 05:00:33;;;;;;;23.70;21.30;;;16.20;99.90;;;;;;5075236;28;20689;-84
2021/06/09 05:03:00;;;;;;;28.53;24.30;;;16.30;99.90;;;;;;5071401;28;20624;-84
2021/06/09 05:05:26;;;;;;;26.37;23.10;;;16.30;99.90;;;;;;5071695;28;20608;-84
2021/06/09 05:07:52;;;;;;;26.93;21.13;;;16.30;99.90;;;;;;5065405;28;20643;-85
2021/06/09 05:10:20;;;;;;;24.73;22.20;;;16.30;99.90;;;;;;5070378;28;20600;-85
2021/06/09 05:12:52;;;;;;;23.60;21.07;;;16.30;99.90;;;;;;5070247;28;20615;-85
2021/06/09 05:15:22;;;;;;;24.20;21.50;;;16.30;99.90;;;;;;5069832;28;20969;-85
2021/06/09 05:17:49;;;;;;;23.97;21.40;;;16.30;99.90;;;;;;5070255;28;20780;-85
2021/06/09 05:20:22;;;;;;;25.17;22.77;;;16.40;99.90;;;;;;5069044;28;20624;-86
2021/06/09 05:22:53;;;;;;;25.13;22.60;;;16.40;99.90;;;;;;5064909;28;20643;-85
2021/06/09 05:25:21;;;;;;;30.37;23.73;;;16.40;99.90;;;;;;5069713;28;20659;-85
2021/06/09 05:27:49;;;;;;;25.47;22.80;;;16.50;99.90;;;;;;5065603;28;20618;-86
2021/06/09 05:30:17;;;;;;;24.73;22.20;;;16.50;99.90;;;;;;5070702;28;20622;-85
2021/06/09 05:32:46;;;;;;;25.80;23.17;;;16.50;99.90;;;;;;5067675;28;20700;-85
2021/06/09 05:35:16;;;;;;;26.47;22.33;;;16.60;99.90;;;;;;5070097;28;21190;-85
2021/06/09 05:37:42;;;;;;;25.93;22.63;;;16.60;99.90;;;;;;5069909;28;20667;-85
2021/06/09 05:40:10;;;;;;;23.10;20.43;;;16.60;99.90;;;;;;5071240;28;20655;-85
2021/06/09 05:42:38;;;;;;;21.33;19.30;;;16.60;99.90;;;;;;5070010;28;20632;-87
2021/06/09 05:45:06;;;;;;;21.23;19.13;;;16.70;99.90;;;;;;5068765;28;20664;-87
2021/06/09 05:47:39;;;;;;;21.30;19.20;;;16.70;99.90;;;;;;5067894;28;20937;-86
2021/06/09 05:50:12;;;;;;;20.53;18.53;;;16.70;99.90;;;;;;5066714;28;20617;-87
2021/06/09 05:52:40;;;;;;;22.23;20.00;;;16.80;99.90;;;;;;5065537;28;20624;-86
2021/06/09 05:55:13;;;;;;;22.40;20.10;;;16.80;99.90;;;;;;5067353;28;20679;-85
2021/06/09 05:57:40;;;;;;;22.27;20.10;;;16.90;99.90;;;;;;5064075;28;21031;-86
2021/06/09 06:00:08;;;;;;;21.73;19.50;;;16.90;99.90;;;;;;5066255;28;20658;-87
2021/06/09 06:02:36;;;;;;;22.47;20.17;;;17.00;99.90;;;;;;5067390;28;20637;-87
2021/06/09 06:05:03;;;;;;;21.63;19.57;;;17.00;99.90;;;;;;5068511;28;20619;-87
2021/06/09 06:07:33;;;;;;;22.47;20.17;;;17.10;99.90;;;;;;5069900;28;20605;-87
2021/06/09 06:10:00;;;;;;;21.17;18.97;;;17.10;99.90;;;;;;5069519;28;20616;-87
2021/06/09 06:12:27;;;;;;;19.73;17.73;;;17.30;99.90;;;;;;5061333;28;20617;-87
2021/06/09 06:14:54;;;;;;;19.33;17.33;;;17.40;99.90;;;;;;5062772;28;20624;-88
2021/06/09 06:17:22;;;;;;;19.80;17.90;;;17.50;99.90;;;;;;5068301;28;20664;-87
2021/06/09 06:19:50;;;;;;;21.20;19.00;;;17.30;99.90;;;;;;5075889;28;21016;-88
2021/06/09 06:22:32;;;;;;;22.63;20.10;;;17.20;99.90;;;;;;5072507;28;20758;-87
2021/06/09 06:25:17;;;;;;;22.13;19.77;;;17.30;99.90;;;;;;5079348;28;20646;-88
2021/06/09 06:27:46;;;;;;;21.67;19.50;;;17.30;99.90;;;;;;5075451;28;21081;-87
2021/06/09 06:30:15;;;;;;;25.00;18.90;;;17.40;99.90;;;;;;5062647;28;20645;-88
2021/06/09 06:32:45;;;;;;;20.53;18.43;;;17.50;99.90;;;;;;5065828;28;21259;-88
2021/06/09 06:35:14;;;;;;;20.83;18.80;;;17.40;99.90;;;;;;5058200;28;20632;-87
2021/06/09 06:37:43;;;;;;;18.10;16.30;;;17.50;99.90;;;;;;5071712;28;20649;-86
2021/06/09 06:40:11;;;;;;;19.70;17.70;;;17.50;99.90;;;;;;5078576;28;21153;-87
2021/06/09 06:43:02;;;;;;;20.40;18.20;;;17.40;99.90;;;;;;5080312;28;21076;-87
2021/06/09 06:45:33;;;;;;;22.20;19.37;;;17.40;99.90;;;;;;5084898;28;20663;-88
2021/06/09 06:48:00;;;;;;;20.53;18.33;;;17.80;99.90;;;;;;5080986;28;20616;-87
2021/06/09 06:50:29;;;;;;;20.40;18.40;;;17.70;99.90;;;;;;5084094;28;20660;-87
2021/06/09 06:52:57;;;;;;;19.90;17.90;;;17.60;99.90;;;;;;5082998;28;20611;-88
2021/06/09 06:55:24;;;;;;;20.70;18.63;;;17.60;99.90;;;;;;5070857;28;20988;-89
2021/06/09 06:57:51;;;;;;;18.70;16.80;;;17.50;99.90;;;;;;5078931;28;20752;-86
2021/06/09 07:00:20;;;;;;;19.97;18.07;;;17.60;99.90;;;;;;5077481;28;20636;-88
2021/06/09 07:02:49;;;;;;;23.37;21.07;;;17.80;99.90;;;;;;5083944;28;20773;-89
2021/06/09 07:05:17;;;;;;;21.20;18.97;;;18.00;99.90;;;;;;5063332;28;20713;-88
2021/06/09 07:07:44;;;;;;;22.30;20.10;;;18.10;99.90;;;;;;5061150;28;20952;-88
2021/06/09 07:10:16;;;;;;;19.10;17.20;;;18.30;99.90;;;;;;5059784;28;20604;-87
2021/06/09 07:12:45;;;;;;;21.20;19.10;;;18.30;99.90;;;;;;5075518;28;20628;-88
2021/06/09 07:15:14;;;;;;;20.43;17.23;;;18.20;99.90;;;;;;5080031;28;20612;-87
2021/06/09 07:17:44;;;;;;;20.57;18.60;;;18.10;99.90;;;;;;5078843;28;20737;-89
2021/06/09 07:20:12;;;;;;;19.30;17.40;;;18.20;99.90;;;;;;5065562;28;20610;-87
2021/06/09 07:22:41;;;;;;;20.27;18.30;;;18.30;99.90;;;;;;5073490;28;20617;-88
2021/06/09 07:25:09;;;;;;;20.40;18.30;;;18.30;99.90;;;;;;5077402;28;20613;-87
2021/06/09 07:27:39;;;;;;;20.17;18.13;;;18.30;99.90;;;;;;5078626;28;20609;-88
2021/06/09 07:30:11;;;;;;;20.87;18.77;;;18.60;99.90;;;;;;5078125;28;20601;-88
2021/06/09 07:32:41;;;;;;;19.67;17.67;;;18.70;99.90;;;;;;5074469;28;20609;-87
2021/06/09 07:35:09;;;;;;;20.13;17.63;;;18.70;99.90;;;;;;5073867;28;20679;-88
2021/06/09 07:37:41;;;;;;;19.50;17.70;;;18.70;99.90;;;;;;5077343;28;21082;-89
2021/06/09 07:40:14;;;;;;;19.60;17.53;;;18.70;99.90;;;;;;5079468;28;20623;-89
2021/06/09 07:42:45;;;;;;;20.13;18.13;;;18.90;99.90;;;;;;5080569;28;20661;-88
2021/06/09 07:45:29;;;;;;;21.77;18.13;;;18.90;99.90;;;;;;5075544;28;20692;-90
2021/06/09 07:47:58;;;;;;;19.17;17.13;;;19.10;99.90;;;;;;5078490;28;20606;-87
2021/06/09 07:50:27;;;;;;;20.77;18.57;;;19.00;99.90;;;;;;5078567;28;21365;-88
2021/06/09 07:52:56;;;;;;;17.67;15.97;;;19.00;99.90;;;;;;5077007;28;20617;-88
2021/06/09 07:55:26;;;;;;;18.53;16.80;;;19.10;99.90;;;;;;5071264;28;20658;-88
2021/06/09 07:57:56;;;;;;;18.63;16.87;;;19.00;99.90;;;;;;5070739;28;20637;-88
2021/06/09 08:00:23;;;;;;;19.27;17.27;;;19.00;99.90;;;;;;5070553;28;20979;-88
2021/06/09 08:02:50;;;;;;;19.63;17.63;;;19.10;99.90;;;;;;5073535;28;20990;-87
2021/06/09 08:05:17;;;;;;;21.00;19.00;;;19.00;99.90;;;;;;5073344;28;20655;-88
2021/06/09 08:07:44;;;;;;;20.60;18.50;;;19.30;99.90;;;;;;5073534;28;20671;-92
2021/06/09 08:10:19;;;;;;;20.50;18.60;;;19.40;99.90;;;;;;5071163;28;20621;-88
2021/06/09 08:12:50;;;;;;;20.63;18.70;;;19.60;99.90;;;;;;5071667;28;20725;-87
2021/06/09 08:15:19;;;;;;;22.67;18.03;;;19.90;99.90;;;;;;5072837;28;20621;-87
2021/06/09 08:17:47;;;;;;;21.40;19.20;;;20.20;99.90;;;;;;5073080;28;20649;-89
2021/06/09 08:20:15;;;;;;;18.90;17.00;;;20.20;99.90;;;;;;5072879;28;20751;-88
2021/06/09 08:22:44;;;;;;;19.63;17.73;;;20.30;99.90;;;;;;5060202;28;20653;-88
2021/06/09 08:25:13;;;;;;;18.77;17.07;;;20.10;99.90;;;;;;5052912;28;20618;-88
2021/06/09 08:27:45;;;;;;;20.13;18.23;;;20.20;99.90;;;;;;5050235;28;20618;-89
2021/06/09 08:30:12;;;;;;;21.00;18.90;;;20.50;99.90;;;;;;5050488;28;20680;-88
2021/06/09 08:32:40;;;;;;;20.87;18.77;;;20.80;99.90;;;;;;5052680;28;20620;-87
2021/06/09 08:35:09;;;;;;;20.60;18.57;;;21.00;99.90;;;;;;5059550;28;21202;-88
2021/06/09 08:37:36;;;;;;;20.93;18.70;;;21.20;99.90;;;;;;5072247;28;20662;-87
2021/06/09 08:40:08;;;;;;;19.50;17.70;;;21.30;99.90;;;;;;5072554;28;20636;-88
2021/06/09 08:42:37;;;;;;;20.67;18.67;;;21.30;99.90;;;;;;5072668;28;20631;-88
2021/06/09 08:45:11;;;;;;;22.07;20.00;;;21.20;99.90;;;;;;5069699;28;20621;-88
2021/06/09 08:47:41;;;;;;;19.40;17.70;;;21.10;99.90;;;;;;5069573;28;20633;-89
2021/06/09 08:50:10;;;;;;;21.27;18.97;;;21.50;99.90;;;;;;5072686;28;21180;-87
2021/06/09 08:52:44;;;;;;;19.90;18.20;;;21.80;99.90;;;;;;5072637;28;20619;-88
2021/06/09 08:55:12;;;;;;;21.93;19.93;;;22.00;99.90;;;;;;5053975;28;21224;-88
2021/06/09 08:57:39;;;;;;;19.50;17.50;;;22.10;99.90;;;;;;5052374;28;20631;-89
2021/06/09 09:00:07;;;;;;;21.00;18.80;;;22.20;99.90;;;;;;5058161;28;20642;-88
2021/06/09 09:02:52;;;;;;;19.33;17.30;;;22.00;99.90;;;;;;5067516;28;20669;-89
2021/06/09 09:05:23;;;;;;;20.70;18.60;;;21.70;99.90;;;;;;5070012;28;20689;-90
2021/06/09 09:07:50;;;;;;;20.03;18.03;;;21.50;99.90;;;;;;5071446;28;20635;-87
2021/06/09 09:10:21;;;;;;;21.17;18.93;;;21.60;99.90;;;;;;5059309;28;20630;-87
2021/06/09 09:15:37;;;;;;;22.33;20.23;;;21.80;99.90;;;;;;5067284;28;21312;-87
2021/06/09 09:18:07;;;;;;;19.97;18.17;;;21.90;99.90;;;;;;5068346;28;20658;-87
2021/06/09 09:20:36;;;;;;;21.50;19.37;;;22.20;99.90;;;;;;5071278;28;20654;-88
2021/06/09 09:23:45;;;;;;;23.60;21.43;;;21.90;99.90;;;;;;5073164;28;20955;-87
2021/06/09 09:27:23;;;;;;;;;;;;;;;;;;;;;
2021/06/09 09:30:01;;;;;;;19.97;17.97;;;22.10;99.90;;;;;;5029773;28;20623;-89
2021/06/09 09:32:27;;;;;;;19.50;17.70;;;22.20;99.90;;;;;;5070923;28;20624;-88
2021/06/09 09:35:06;;;;;;;21.83;19.67;;;22.50;99.90;;;;;;5070522;28;20623;-88
2021/06/09 09:37:32;;;;;;;20.50;18.60;;;22.90;99.90;;;;;;5061967;28;20651;-88
2021/06/09 09:40:08;;;;;;;19.47;17.57;;;23.10;99.30;;;;;;5068625;28;20628;-88
2021/06/09 09:42:35;;;;;;;21.00;18.80;;;23.30;99.90;;;;;;5059945;28;20982;-88
2021/06/09 09:45:17;;;;;;;21.43;19.30;;;23.40;98.80;;;;;;5070402;28;20620;-89
2021/06/09 09:47:43;;;;;;;22.00;19.77;;;23.60;99.80;;;;;;5068448;28;20624;-90
2021/06/09 09:50:53;;;;;;;20.77;18.77;;;23.70;98.40;;;;;;5071082;28;20616;-89
2021/06/09 09:53:30;;;;;;;20.00;18.00;;;23.90;98.70;;;;;;5058243;28;20696;-89
2021/06/09 09:56:03;;;;;;;21.07;19.17;;;24.10;98.10;;;;;;5067838;28;20606;-88
2021/06/09 09:58:31;;;;;;;23.37;21.07;;;24.20;98.00;;;;;;5064631;28;20657;-88
2021/06/09 10:01:19;;;;;;;21.83;19.73;;;24.20;97.50;;;;;;5067834;28;20625;-88
2021/06/09 10:03:48;;;;;;;21.40;19.20;;;23.90;96.40;;;;;;5050211;28;20692;-88
2021/06/09 10:06:27;;;;;;;21.27;19.27;;;23.80;97.30;;;;;;5049712;28;20630;-87
2021/06/09 10:08:57;;;;;;;20.33;18.47;;;23.90;97.80;;;;;;5051235;28;20954;-90
2021/06/09 10:11:26;;;;;;;18.60;16.90;;;24.00;96.70;;;;;;5050831;28;20695;-89
2021/06/09 10:13:53;;;;;;;20.57;18.67;;;24.30;97.20;;;;;;5050747;28;20664;-89
2021/06/09 10:16:32;;;;;;;19.97;18.07;;;24.60;96.10;;;;;;5068475;28;20994;-88
2021/06/09 10:19:05;;;;;;;21.23;19.23;;;25.00;95.90;;;;;;5068948;28;20616;-89
2021/06/09 10:21:33;;;;;;;20.37;18.47;;;25.10;95.00;;;;;;5069212;28;20612;-87
2021/06/09 10:24:05;;;;;;;20.37;18.57;;;25.00;95.10;;;;;;5068882;28;20624;-89
2021/06/09 10:26:32;;;;;;;19.37;17.57;;;25.00;94.60;;;;;;5070315;28;21166;-87
2021/06/09 10:29:05;;;;;;;19.60;17.90;;;25.20;93.50;;;;;;5070121;28;20622;-88
2021/06/09 10:31:35;;;;;;;18.70;17.00;;;25.60;94.00;;;;;;5070891;28;20640;-89
2021/06/09 10:34:03;;;;;;;20.30;18.43;;;25.80;93.30;;;;;;5070410;28;20699;-88
2021/06/09 10:36:29;;;;;;;19.30;17.50;;;26.00;92.80;;;;;;5070235;28;20617;-88
2021/06/09 10:38:56;;;;;;;17.03;15.50;;;26.10;92.30;;;;;;5058050;28;20670;-88
2021/06/09 10:41:25;;;;;;;19.00;17.20;;;26.20;92.70;;;;;;5069981;28;20605;-88
2021/06/09 10:43:54;;;;;;;19.20;17.50;;;26.40;90.90;;;;;;5069021;28;20636;-87
2021/06/09 10:46:24;;;;;;;19.40;17.70;;;26.30;90.70;;;;;;5070184;28;20625;-88
2021/06/09 10:48:55;;;;;;;17.40;15.83;;;26.00;89.70;;;;;;5065019;28;20652;-88
2021/06/09 10:51:22;;;;;;;19.27;17.50;;;25.50;90.30;;;;;;5068297;28;20622;-87
2021/06/09 10:53:50;;;;;;;18.40;16.83;;;25.50;90.70;;;;;;5066760;28;20720;-88
2021/06/09 10:56:23;;;;;;;17.63;16.03;;;25.30;91.20;;;;;;5070305;28;20628;-89
2021/06/09 10:59:24;;;;;;;;;;;;;;;;;;;;;
2021/06/09 11:01:57;;;;;;;19.13;17.57;;;24.90;91.90;;;;;;5068665;28;20605;-88
2021/06/09 11:04:25;;;;;;;18.20;16.63;;;24.80;92.50;;;;;;5067427;28;20740;-85
2021/06/09 11:06:53;;;;;;;15.63;14.23;;;25.10;92.60;;;;;;5068884;28;20716;-85
2021/06/09 11:09:23;;;;;;;17.03;15.60;;;25.50;90.70;;;;;;5069711;28;20977;-85
2021/06/09 11:12:17;;;;;;;17.00;15.50;;;26.00;90.30;;;;;;5070482;28;20613;-86
2021/06/09 11:14:51;;;;;;;16.63;15.13;;;26.00;86.20;;;;;;5067568;28;20617;-87
2021/06/09 11:17:34;;;;;;;15.90;14.60;;;25.80;87.70;;;;;;5064445;28;20653;-86
2021/06/09 11:20:25;;;;;;;16.33;15.03;;;26.10;90.00;;;;;;5066745;28;20646;-85
2021/06/09 11:22:53;;;;;;;19.00;17.20;;;25.70;88.10;;;;;;5067508;28;20637;-88
2021/06/09 11:25:22;;;;;;;17.80;16.20;;;25.40;88.90;;;;;;5069220;28;20637;-88
2021/06/09 11:27:58;;;;;;;17.87;16.23;;;25.50;90.20;;;;;;5067971;28;20623;-88
2021/06/09 11:30:39;;;;;;;17.97;16.47;;;24.80;88.90;;;;;;5067162;28;20632;-87
2021/06/09 11:33:09;;;;;;;18.30;16.60;;;24.60;90.30;;;;;;5069217;28;20698;-89
2021/06/09 11:35:48;;;;;;;17.80;16.30;;;24.80;89.80;;;;;;5070824;28;21230;-87
2021/06/09 11:38:20;;;;;;;16.90;15.50;;;25.10;90.70;;;;;;5074324;28;20661;-87
2021/06/09 11:40:49;;;;;;;16.47;14.90;;;25.80;88.70;;;;;;5071930;28;21254;-88
2021/06/09 11:43:17;;;;;;;16.83;15.40;;;26.30;87.00;;;;;;5057031;28;20636;-88
2021/06/09 11:45:53;;;;;;;16.40;15.10;;;26.50;82.00;;;;;;5063675;28;20610;-88
2021/06/09 11:48:22;;;;;;;17.63;16.03;;;27.30;84.90;;;;;;5068475;28;20617;-89
2021/06/09 11:50:52;;;;;;;15.83;14.60;;;28.00;79.50;;;;;;5072189;28;20640;-89
2021/06/09 11:53:34;;;;;;;14.93;13.73;;;28.70;74.40;;;;;;5070713;28;20625;-88
2021/06/09 11:56:20;;;;;;;16.03;14.83;;;29.10;73.30;;;;;;5071599;28;20986;-89
2021/06/09 11:58:48;;;;;;;15.50;14.20;;;28.50;72.40;;;;;;5062387;28;21607;-88
2021/06/09 12:01:18;;;;;;;15.93;14.63;;;27.60;75.30;;;;;;5058247;28;20626;-88
2021/06/09 12:03:45;;;;;;;16.20;14.40;;;27.70;74.60;;;;;;5062138;28;21242;-87
2021/06/09 12:06:13;;;;;;;16.10;14.70;;;27.70;77.00;;;;;;5063439;28;21171;-87
2021/06/09 12:08:49;;;;;;;14.83;13.60;;;27.40;74.90;;;;;;5068896;28;21176;-88
2021/06/09 12:11:20;;;;;;;14.80;13.63;;;27.20;75.60;;;;;;5067925;28;20629;-89
2021/06/09 12:13:47;;;;;;;14.90;13.60;;;27.20;75.00;;;;;;5072646;28;20683;-88
2021/06/09 12:16:20;;;;;;;14.73;13.43;;;26.90;74.60;;;;;;5054339;28;20652;-87
2021/06/09 12:18:56;;;;;;;14.80;13.60;;;26.30;79.40;;;;;;5067535;28;21310;-87
2021/06/09 12:21:23;;;;;;;15.23;14.03;;;26.00;84.40;;;;;;5069113;28;21017;-87
2021/06/09 12:23:54;;;;;;;16.67;15.17;;;25.60;84.80;;;;;;5071972;28;20633;-86
2021/06/09 12:26:20;;;;;;;16.57;15.27;;;25.50;85.00;;;;;;5069804;28;20971;-87
2021/06/09 12:28:47;;;;;;;16.07;14.57;;;24.80;86.40;;;;;;5071097;28;20605;-87
2021/06/09 12:31:16;;;;;;;16.40;14.80;;;24.40;86.80;;;;;;5070020;28;20601;-86
2021/06/09 12:33:44;;;;;;;16.40;15.00;;;24.90;90.40;;;;;;5070382;28;20617;-87
2021/06/09 12:36:12;;;;;;;17.57;16.07;;;25.80;87.40;;;;;;5067101;28;22300;-87
2021/06/09 12:38:40;;;;;;;16.03;14.73;;;27.40;85.90;;;;;;5069784;28;20641;-87
2021/06/09 12:41:09;;;;;;;13.90;12.80;;;29.10;79.80;;;;;;5070201;28;21032;-87
2021/06/09 12:43:38;;;;;;;14.57;13.43;;;30.00;76.70;;;;;;5065156;28;20641;-87
2021/06/09 12:46:04;;;;;;;15.50;14.07;;;30.40;72.40;;;;;;5069500;28;20682;-88
2021/06/09 12:48:36;;;;;;;14.17;13.17;;;29.70;68.90;;;;;;5071808;28;20613;-88